createdAt,value
2017-11-10T00:01:40.625Z,50.13
2017-11-10T00:04:08.756Z,52.83
2017-11-10T00:06:37.693Z,47.10
2017-11-10T00:09:05.801Z,47.53
2017-11-10T00:11:34.729Z,49.13
2017-11-10T00:14:02.856Z,48.70
2017-11-10T00:16:31.003Z,52.03
2017-11-10T00:18:59.166Z,50.20
2017-11-10T00:21:27.305Z,49.60
2017-11-10T00:23:56.264Z,48.37
2017-11-10T00:26:25.958Z,45.47
2017-11-10T00:28:54.089Z,50.23
2017-11-10T00:31:22.267Z,48.83
2017-11-10T00:33:50.415Z,48.07
2017-11-10T00:36:18.555Z,45.37
2017-11-10T00:38:46.701Z,51.37
2017-11-10T00:41:14.839Z,55.63
2017-11-10T00:43:42.984Z,53.03
2017-11-10T00:46:11.144Z,48.70
2017-11-10T00:48:39.302Z,52.60
2017-11-10T00:51:07.430Z,47.10
2017-11-10T00:53:35.573Z,50.67
2017-11-10T00:56:03.718Z,46.37
2017-11-10T00:58:31.861Z,49.13
2017-11-10T01:01:00.027Z,51.67
2017-11-10T01:03:28.149Z,46.40
2017-11-10T01:05:56.321Z,51.93
2017-11-10T01:08:24.510Z,48.40
2017-11-10T01:10:52.681Z,47.80
2017-11-10T01:13:22.949Z,53.30
2017-11-10T01:15:51.099Z,53.70
2017-11-10T01:18:19.258Z,49.90
2017-11-10T01:20:48.182Z,46.87
2017-11-10T01:23:16.335Z,46.67
2017-11-10T01:25:44.504Z,50.10
2017-11-10T01:28:12.659Z,50.83
2017-11-10T01:30:41.569Z,48.90
2017-11-10T01:33:09.705Z,51.37
2017-11-10T01:35:37.854Z,51.00
2017-11-10T01:38:05.996Z,56.03
2017-11-10T01:40:34.123Z,56.10
2017-11-10T01:43:03.044Z,53.00
2017-11-10T01:45:31.949Z,56.33
2017-11-10T01:48:00.096Z,55.97
2017-11-10T01:50:28.980Z,56.40
2017-11-10T01:52:57.911Z,53.23
2017-11-10T01:55:26.039Z,53.97
2017-11-10T01:57:54.201Z,50.17
2017-11-10T02:00:22.934Z,59.53
2017-11-10T02:02:51.093Z,49.17
2017-11-10T02:05:19.260Z,56.07
2017-11-10T02:07:48.168Z,56.30
2017-11-10T02:10:16.309Z,54.07
2017-11-10T02:12:45.206Z,50.77
2017-11-10T02:15:14.117Z,51.70
2017-11-10T02:17:42.249Z,53.30
2017-11-10T02:20:10.392Z,51.57
2017-11-10T02:22:38.532Z,52.67
2017-11-10T02:25:07.520Z,48.90
2017-11-10T02:27:36.438Z,47.57
2017-11-10T02:30:04.647Z,51.00
2017-11-10T02:32:33.007Z,49.00
2017-11-10T02:35:01.146Z,48.53
2017-11-10T02:37:29.423Z,48.93
2017-11-10T02:39:57.590Z,45.63
2017-11-10T02:42:25.733Z,45.90
2017-11-10T02:44:53.879Z,51.60
2017-11-10T02:47:22.003Z,44.97
2017-11-10T02:49:50.147Z,47.17
2017-11-10T02:52:19.771Z,51.70
2017-11-10T02:54:48.695Z,48.50
2017-11-10T02:57:16.830Z,45.77
2017-11-10T02:59:45.740Z,45.33
2017-11-10T03:02:13.873Z,43.50
2017-11-10T03:04:43.648Z,48.93
2017-11-10T03:07:11.769Z,41.20
2017-11-10T03:09:39.937Z,44.30
2017-11-10T03:12:08.866Z,41.40
2017-11-10T03:14:37.018Z,37.13
2017-11-10T03:17:05.151Z,39.47
2017-11-10T03:19:33.269Z,43.33
2017-11-10T03:22:01.421Z,38.90
2017-11-10T03:24:30.315Z,41.97
2017-11-10T03:26:59.239Z,48.53
2017-11-10T03:29:27.376Z,40.47
2017-11-10T03:31:55.511Z,43.17
2017-11-10T03:34:23.730Z,41.07
2017-11-10T03:36:52.645Z,44.03
2017-11-10T03:39:20.777Z,46.90
2017-11-10T03:41:49.008Z,39.50
2017-11-10T03:44:17.200Z,44.17
2017-11-10T03:46:45.678Z,44.07
2017-11-10T03:49:13.792Z,44.60
2017-11-10T03:51:42.699Z,43.30
2017-11-10T03:54:10.849Z,44.60
2017-11-10T03:56:39.745Z,46.17
2017-11-10T03:59:08.738Z,48.07
2017-11-10T04:01:36.859Z,44.77
2017-11-10T04:04:04.994Z,43.63
2017-11-10T04:06:33.155Z,41.87
2017-11-10T04:09:02.115Z,37.67
2017-11-10T04:11:31.165Z,38.97
2017-11-10T04:13:59.480Z,43.80
2017-11-10T04:16:27.603Z,40.13
2017-11-10T04:18:56.508Z,36.73
2017-11-10T04:21:24.645Z,35.90
2017-11-10T04:23:53.576Z,32.97
2017-11-10T04:26:21.704Z,38.97
2017-11-10T04:28:50.704Z,30.40
2017-11-10T04:31:19.608Z,33.20
2017-11-10T04:33:47.742Z,31.73
2017-11-10T04:36:16.617Z,30.20
2017-11-10T04:38:44.772Z,37.47
2017-11-10T04:41:13.036Z,34.17
2017-11-10T04:43:41.187Z,35.77
2017-11-10T04:46:09.330Z,37.00
2017-11-10T04:48:37.520Z,33.50
2017-11-10T04:51:06.426Z,31.63
2017-11-10T04:53:34.593Z,35.60
2017-11-10T04:56:04.627Z,38.63
2017-11-10T04:58:32.746Z,34.40
2017-11-10T05:01:00.902Z,39.93
2017-11-10T05:03:29.039Z,42.90
2017-11-10T05:05:57.192Z,39.33
2017-11-10T05:08:25.435Z,39.37
2017-11-10T05:10:53.621Z,40.47
2017-11-10T05:13:22.523Z,36.70
2017-11-10T05:15:51.440Z,33.50
2017-11-10T05:18:19.576Z,35.20
2017-11-10T05:20:47.725Z,37.70
2017-11-10T05:23:15.859Z,46.67
2017-11-10T05:25:44.002Z,46.17
2017-11-10T05:28:12.959Z,42.47
2017-11-10T05:30:41.137Z,43.73
2017-11-10T05:33:09.297Z,43.70
2017-11-10T05:35:37.470Z,40.10
2017-11-10T05:38:05.632Z,34.20
2017-11-10T05:40:33.758Z,33.73
2017-11-10T05:43:02.886Z,30.13
2017-11-10T05:45:31.015Z,36.40
2017-11-10T05:47:59.146Z,35.13
2017-11-10T05:50:28.226Z,38.47
2017-11-10T05:52:56.375Z,34.00
2017-11-10T05:55:25.358Z,34.77
2017-11-10T05:57:54.256Z,32.20
2017-11-10T06:00:23.203Z,39.47
2017-11-10T06:02:51.385Z,35.10
2017-11-10T06:05:19.520Z,36.83
2017-11-10T06:07:47.653Z,33.43
2017-11-10T06:10:16.559Z,32.53
2017-11-10T06:12:45.453Z,33.27
2017-11-10T06:15:14.372Z,27.23
2017-11-10T06:17:42.491Z,32.30
2017-11-10T06:20:11.414Z,32.10
2017-11-10T06:22:39.541Z,28.40
2017-11-10T06:25:08.464Z,34.77
2017-11-10T06:27:36.621Z,28.17
2017-11-10T06:30:05.612Z,28.93
2017-11-10T06:32:34.517Z,29.00
2017-11-10T06:35:02.655Z,27.80
2017-11-10T06:37:30.786Z,25.03
2017-11-10T06:39:58.938Z,26.50
2017-11-10T06:42:27.859Z,28.80
2017-11-10T06:44:55.981Z,25.03
2017-11-10T06:47:24.886Z,23.63
2017-11-10T06:49:53.013Z,27.50
2017-11-10T06:52:21.162Z,27.57
2017-11-10T06:54:49.305Z,23.10
2017-11-10T06:57:18.212Z,25.10
2017-11-10T06:59:46.402Z,24.60
2017-11-10T07:02:14.554Z,26.00
2017-11-10T07:04:42.697Z,26.00
2017-11-10T07:07:11.633Z,26.43
2017-11-10T07:12:03.440Z,26.23
2017-11-10T07:14:31.577Z,26.93
2017-11-10T07:16:59.706Z,26.60
2017-11-10T07:19:27.849Z,26.37
2017-11-10T07:21:56.779Z,24.90
2017-11-10T07:24:24.988Z,23.90
2017-11-10T07:26:53.173Z,25.60
2017-11-10T07:29:21.317Z,23.00
2017-11-10T07:31:49.562Z,24.73
2017-11-10T07:34:17.705Z,32.80
2017-11-10T07:36:46.614Z,28.93
2017-11-10T07:39:14.775Z,32.13
2017-11-10T07:41:43.658Z,32.10
2017-11-10T07:44:12.577Z,26.37
2017-11-10T07:46:40.710Z,29.60
2017-11-10T07:49:09.610Z,32.40
2017-11-10T07:51:39.255Z,31.57
2017-11-10T07:54:07.377Z,28.60
2017-11-10T07:56:36.301Z,32.97
2017-11-10T07:59:04.427Z,26.60
2017-11-10T08:01:32.566Z,29.13
2017-11-10T08:04:00.794Z,35.10
2017-11-10T08:06:29.721Z,28.90
2017-11-10T08:08:58.710Z,28.93
2017-11-10T08:11:26.893Z,32.30
2017-11-10T08:13:55.040Z,31.07
2017-11-10T08:16:23.930Z,30.07
2017-11-10T08:18:52.078Z,28.43
2017-11-10T08:21:20.205Z,31.13
2017-11-10T08:23:48.384Z,29.17
2017-11-10T08:26:16.505Z,30.63
2017-11-10T08:28:44.644Z,32.83
2017-11-10T08:31:12.775Z,33.20
2017-11-10T08:33:40.950Z,30.50
2017-11-10T08:36:09.163Z,33.57
2017-11-10T08:38:37.362Z,32.73
2017-11-10T08:41:06.276Z,34.77
2017-11-10T08:43:34.463Z,35.23
2017-11-10T08:46:02.712Z,36.90
2017-11-10T08:48:31.594Z,34.13
2017-11-10T08:51:00.530Z,34.40
2017-11-10T08:53:28.658Z,37.40
2017-11-10T08:55:57.573Z,33.20
2017-11-10T08:58:25.741Z,35.03
2017-11-10T09:00:53.899Z,39.83
2017-11-10T09:03:22.792Z,38.10
2017-11-10T09:05:51.710Z,39.63
2017-11-10T09:08:19.869Z,32.40
2017-11-10T09:10:48.021Z,30.47
2017-11-10T09:13:16.944Z,35.73
2017-11-10T09:15:45.089Z,37.23
2017-11-10T09:18:13.981Z,32.00
2017-11-10T09:20:42.864Z,33.00
2017-11-10T09:23:11.802Z,34.37
2017-11-10T09:25:39.907Z,34.23
2017-11-10T09:28:12.511Z,33.13
2017-11-10T09:30:57.050Z,33.23
2017-11-10T09:33:26.038Z,33.30
2017-11-10T09:36:06.954Z,31.80
2017-11-10T09:38:54.850Z,30.50
2017-11-10T09:41:28.801Z,33.07
2017-11-10T09:43:57.545Z,29.00
2017-11-10T09:46:26.608Z,27.63
2017-11-10T09:49:00.448Z,29.30
2017-11-10T09:51:47.327Z,35.53
2017-11-10T09:54:20.932Z,30.93
2017-11-10T09:56:54.645Z,33.60
2017-11-10T09:59:23.273Z,29.17
2017-11-10T10:01:53.046Z,32.53
2017-11-10T10:04:38.985Z,25.93
2017-11-10T10:07:22.898Z,25.27
2017-11-10T10:09:51.802Z,30.83
2017-11-10T10:12:28.538Z,28.43
2017-11-10T10:14:59.202Z,29.70
2017-11-10T10:20:27.526Z,27.03
2017-11-10T10:22:56.111Z,26.40
2017-11-10T10:25:24.263Z,29.50
2017-11-10T10:27:52.381Z,25.63
2017-11-10T10:30:20.540Z,23.43
2017-11-10T10:32:48.661Z,26.80
2017-11-10T10:35:18.324Z,26.40
2017-11-10T10:37:46.452Z,23.20
2017-11-10T10:40:14.661Z,24.03
2017-11-10T10:42:42.790Z,19.80
2017-11-10T10:45:11.690Z,21.73
2017-11-10T10:47:39.820Z,24.33
2017-11-10T10:50:07.960Z,23.53
2017-11-10T10:52:36.085Z,27.97
2017-11-10T10:55:05.020Z,21.00
2017-11-10T10:57:33.144Z,18.97
2017-11-10T11:00:02.061Z,19.57
2017-11-10T11:02:30.222Z,21.83
2017-11-10T11:04:59.095Z,20.73
2017-11-10T11:07:28.004Z,19.70
2017-11-10T11:09:56.153Z,21.00
2017-11-10T11:12:24.307Z,18.33
2017-11-10T11:14:52.435Z,22.27
2017-11-10T11:17:20.581Z,18.93
2017-11-10T11:19:49.490Z,19.20
2017-11-10T11:22:17.698Z,18.20
2017-11-10T11:24:45.843Z,18.73
2017-11-10T11:27:13.984Z,20.73
2017-11-10T11:29:42.122Z,17.27
2017-11-10T11:32:10.491Z,20.10
2017-11-10T11:34:38.678Z,20.63
2017-11-10T11:37:06.805Z,20.50
2017-11-10T11:39:34.946Z,19.90
2017-11-10T11:42:03.153Z,22.90
2017-11-10T11:44:32.067Z,21.90
2017-11-10T11:47:00.202Z,24.23
2017-11-10T11:49:29.101Z,22.93
2017-11-10T11:51:58.014Z,21.17
2017-11-10T11:54:26.134Z,22.87
2017-11-10T11:56:54.291Z,24.60
2017-11-10T11:59:23.654Z,23.90
2017-11-10T12:01:52.511Z,26.57
2017-11-10T12:04:20.641Z,25.23
2017-11-10T12:06:48.778Z,21.03
2017-11-10T12:09:17.537Z,21.70
2017-11-10T12:11:46.460Z,23.33
2017-11-10T12:14:14.650Z,25.97
2017-11-10T12:16:42.800Z,21.40
2017-11-10T12:19:11.699Z,22.90
2017-11-10T12:21:39.824Z,25.37
2017-11-10T12:24:07.979Z,22.77
2017-11-10T12:26:36.111Z,22.10
2017-11-10T12:29:04.247Z,21.80
2017-11-10T12:31:33.137Z,20.97
2017-11-10T12:34:02.065Z,21.90
2017-11-10T12:36:30.195Z,23.53
2017-11-10T12:38:58.349Z,24.37
2017-11-10T12:41:26.499Z,22.10
2017-11-10T12:43:54.626Z,25.70
2017-11-10T12:46:22.895Z,22.20
2017-11-10T12:48:51.018Z,26.93
2017-11-10T12:51:19.248Z,24.37
2017-11-10T12:53:48.158Z,21.63
2017-11-10T12:56:17.170Z,24.20
2017-11-10T12:58:45.301Z,26.83
2017-11-10T13:01:14.222Z,25.80
2017-11-10T13:03:42.362Z,22.87
2017-11-10T13:06:11.286Z,24.37
2017-11-10T13:08:39.474Z,25.37
2017-11-10T13:11:07.650Z,23.30
2017-11-10T13:13:35.766Z,27.80
2017-11-10T13:16:04.222Z,26.90
2017-11-10T13:18:32.673Z,26.50
2017-11-10T13:21:00.823Z,26.33
2017-11-10T13:23:28.970Z,22.97
2017-11-10T13:25:57.130Z,30.90
2017-11-10T13:28:25.275Z,23.87
2017-11-10T13:30:53.408Z,25.53
2017-11-10T13:33:21.551Z,25.20
2017-11-10T13:35:49.722Z,26.43
2017-11-10T13:38:17.886Z,24.60
2017-11-10T13:40:46.782Z,26.77
2017-11-10T13:43:14.922Z,25.87
2017-11-10T13:45:43.084Z,22.77
2017-11-10T13:48:11.267Z,26.67
2017-11-10T13:50:39.420Z,30.33
2017-11-10T13:53:07.571Z,27.57
2017-11-10T13:55:36.499Z,24.57
2017-11-10T13:58:04.643Z,25.07
2017-11-10T14:00:33.565Z,24.70
2017-11-10T14:03:01.700Z,26.77
2017-11-10T14:05:30.614Z,24.20
2017-11-10T14:07:58.744Z,25.07
2017-11-10T14:10:26.910Z,29.00
2017-11-10T14:12:55.071Z,31.13
2017-11-10T14:15:23.223Z,25.07
2017-11-10T14:17:51.353Z,33.23
2017-11-10T14:20:20.286Z,29.37
2017-11-10T14:22:48.444Z,29.53
2017-11-10T14:25:16.587Z,30.80
2017-11-10T14:27:45.485Z,29.23
2017-11-10T14:30:13.642Z,30.80
2017-11-10T14:32:42.552Z,29.83
2017-11-10T14:35:10.700Z,25.73
2017-11-10T14:37:39.632Z,25.63
2017-11-10T14:40:07.752Z,28.53
2017-11-10T14:42:35.910Z,30.53
2017-11-10T14:45:04.064Z,28.50
2017-11-10T14:47:32.205Z,26.67
2017-11-10T14:50:00.359Z,26.77
2017-11-10T14:52:29.282Z,36.87
2017-11-10T14:54:57.446Z,30.03
2017-11-10T14:57:25.581Z,31.43
2017-11-10T14:59:54.478Z,31.67
2017-11-10T15:02:23.375Z,33.97
2017-11-10T15:04:52.294Z,25.93
2017-11-10T15:07:20.433Z,31.50
2017-11-10T15:09:49.363Z,30.30
2017-11-10T15:12:17.518Z,25.47
2017-11-10T15:14:45.772Z,26.70
2017-11-10T15:17:13.917Z,24.30
2017-11-10T15:19:42.053Z,33.33
2017-11-10T15:22:10.849Z,25.63
2017-11-10T15:24:39.117Z,28.50
2017-11-10T15:27:07.294Z,28.70
2017-11-10T15:29:35.452Z,28.87
2017-11-10T15:32:03.661Z,26.00
2017-11-10T15:34:32.043Z,25.93
2017-11-10T15:37:00.709Z,28.43
2017-11-10T15:39:29.634Z,26.57
2017-11-10T15:41:57.900Z,29.43
2017-11-10T15:44:26.069Z,28.67
2017-11-10T15:46:54.271Z,24.67
2017-11-10T15:49:22.417Z,26.80
2017-11-10T15:51:50.602Z,25.33
2017-11-10T15:54:20.112Z,25.30
2017-11-10T15:56:49.264Z,27.30
2017-11-10T15:59:17.443Z,28.77
2017-11-10T16:01:46.376Z,28.93
2017-11-10T16:04:16.787Z,29.63
2017-11-10T16:06:44.926Z,25.50
2017-11-10T16:09:13.082Z,25.93
2017-11-10T16:11:41.995Z,24.17
2017-11-10T16:14:10.257Z,24.70
2017-11-10T16:16:38.487Z,24.63
2017-11-10T16:19:06.781Z,25.70
2017-11-10T16:21:34.932Z,24.80
2017-11-10T16:24:03.142Z,27.13
2017-11-10T16:26:32.056Z,24.77
2017-11-10T16:29:00.222Z,27.30
2017-11-10T16:31:28.387Z,28.60
2017-11-10T16:33:57.351Z,26.33
2017-11-10T16:36:25.490Z,24.30
2017-11-10T16:38:54.409Z,23.63
2017-11-10T16:41:22.593Z,22.10
2017-11-10T16:43:50.781Z,19.30
2017-11-10T16:46:19.713Z,21.00
2017-11-10T16:48:47.868Z,24.60
2017-11-10T16:51:16.020Z,21.93
2017-11-10T16:53:44.910Z,22.20
2017-11-10T16:56:13.861Z,19.07
2017-11-10T16:58:43.539Z,20.77
2017-11-10T17:01:13.561Z,22.47
2017-11-10T17:03:41.772Z,20.57
2017-11-10T17:06:09.923Z,19.67
2017-11-10T17:08:38.070Z,20.60
2017-11-10T17:11:06.857Z,19.47
2017-11-10T17:13:34.995Z,19.10
2017-11-10T17:16:03.928Z,21.27
2017-11-10T17:18:32.087Z,21.67
2017-11-10T17:21:00.255Z,21.87
2017-11-10T17:23:28.399Z,19.27
2017-11-10T17:25:57.308Z,22.03
2017-11-10T17:28:26.806Z,21.03
2017-11-10T17:30:55.725Z,19.63
2017-11-10T17:33:24.047Z,21.63
2017-11-10T17:35:52.201Z,19.40
2017-11-10T17:38:20.340Z,22.40
2017-11-10T17:40:48.525Z,18.77
2017-11-10T17:43:16.655Z,18.40
2017-11-10T17:45:45.563Z,22.77
2017-11-10T17:48:13.702Z,24.43
2017-11-10T17:50:41.890Z,23.80
2017-11-10T17:53:10.796Z,19.17
2017-11-10T17:55:38.958Z,24.30
2017-11-10T17:58:07.871Z,21.53
2017-11-10T18:00:36.004Z,19.13
2017-11-10T18:03:04.942Z,21.67
2017-11-10T18:05:33.115Z,21.57
2017-11-10T18:08:01.273Z,20.53
2017-11-10T18:10:30.190Z,20.43
2017-11-10T18:26:00.387Z,20.37
2017-11-10T18:28:28.623Z,19.47
2017-11-10T18:30:57.565Z,20.07
2017-11-10T18:33:25.729Z,14.97
2017-11-10T18:35:54.611Z,17.60
2017-11-10T18:38:23.037Z,15.97
2017-11-10T18:40:51.152Z,18.17
2017-11-10T18:43:19.307Z,16.27
2017-11-10T18:45:48.209Z,16.27
2017-11-10T18:48:22.002Z,18.10
2017-11-10T18:50:50.895Z,14.77
2017-11-10T18:53:19.790Z,15.40
2017-11-10T18:55:52.622Z,21.20
2017-11-10T18:58:20.762Z,17.63
2017-11-10T19:00:48.894Z,18.47
2017-11-10T19:03:18.483Z,18.33
2017-11-10T19:05:48.382Z,16.37
2017-11-10T19:08:16.512Z,26.33
2017-11-10T19:10:45.413Z,16.00
2017-11-10T19:13:13.547Z,17.87
2017-11-10T19:15:41.670Z,18.30
2017-11-10T19:18:09.835Z,20.33
2017-11-10T19:20:37.957Z,19.00
2017-11-10T19:23:06.132Z,17.97
2017-11-10T19:25:34.275Z,16.40
2017-11-10T19:28:02.452Z,20.57
2017-11-10T19:30:31.397Z,19.03
2017-11-10T19:33:00.279Z,17.30
2017-11-10T19:35:29.185Z,20.77
2017-11-10T19:37:57.730Z,16.60
2017-11-10T19:40:25.973Z,27.37
2017-11-10T19:42:54.141Z,15.90
2017-11-10T19:45:22.293Z,16.57
2017-11-10T19:47:50.446Z,15.00
2017-11-10T19:50:19.369Z,16.60
2017-11-10T19:52:48.145Z,15.00
2017-11-10T19:55:16.304Z,20.40
2017-11-10T19:57:45.194Z,18.70
2017-11-10T20:00:14.114Z,18.17
2017-11-10T20:02:43.213Z,21.57
2017-11-10T20:05:11.881Z,19.63
2017-11-10T20:07:40.021Z,18.00
2017-11-10T20:10:08.924Z,19.83
2017-11-10T20:12:37.072Z,15.97
2017-11-10T20:15:06.701Z,18.53
2017-11-10T20:17:35.239Z,19.07
2017-11-10T20:20:03.417Z,15.43
2017-11-10T20:22:31.557Z,20.23
2017-11-10T20:24:59.730Z,17.17
2017-11-10T20:27:27.857Z,17.17
2017-11-10T20:29:56.775Z,20.20
2017-11-10T20:32:24.988Z,15.87
2017-11-10T20:34:53.116Z,16.77
2017-11-10T20:37:21.273Z,14.73
2017-11-10T20:39:50.193Z,16.50
2017-11-10T20:42:19.117Z,15.90
2017-11-10T20:44:47.246Z,18.83
2017-11-10T20:47:15.389Z,20.43
2017-11-10T20:49:44.313Z,15.60
2017-11-10T20:52:12.479Z,20.20
2017-11-10T20:54:40.618Z,16.90
2017-11-10T20:57:08.772Z,17.13
2017-11-10T20:59:36.893Z,19.37
2017-11-10T21:02:05.045Z,16.97
2017-11-10T21:04:34.701Z,16.07
2017-11-10T21:07:02.851Z,20.63
2017-11-10T21:09:31.760Z,16.83
2017-11-10T21:11:59.883Z,14.40
2017-11-10T21:14:28.040Z,18.53
2017-11-10T21:16:56.968Z,18.70
2017-11-10T21:19:25.854Z,15.80
2017-11-10T21:21:53.978Z,13.50
2017-11-10T21:24:22.112Z,16.50
2017-11-10T21:26:52.085Z,10.33
2017-11-10T21:29:20.327Z,12.07
2017-11-10T21:31:48.444Z,12.37
2017-11-10T21:34:17.335Z,11.77
2017-11-10T21:36:46.260Z,12.47
2017-11-10T21:39:15.158Z,14.33
2017-11-10T21:41:44.089Z,8.43
2017-11-10T21:44:12.217Z,10.93
2017-11-10T21:46:40.363Z,12.53
2017-11-10T21:49:09.293Z,13.07
2017-11-10T21:51:37.423Z,10.30
2017-11-10T21:54:06.349Z,15.00
2017-11-10T21:56:34.478Z,9.33
2017-11-10T21:59:03.393Z,10.87
2017-11-10T22:01:31.527Z,12.67
2017-11-10T22:03:59.665Z,10.83
2017-11-10T22:06:28.572Z,10.43
2017-11-10T22:08:56.872Z,13.80
2017-11-10T22:11:26.718Z,10.47
2017-11-10T22:13:55.595Z,11.70
2017-11-10T22:16:23.725Z,9.67
2017-11-10T22:18:51.859Z,12.03
2017-11-10T22:21:20.030Z,9.10
2017-11-10T22:23:48.136Z,11.20
2017-11-10T22:26:16.266Z,11.07
2017-11-10T22:28:44.423Z,11.23
2017-11-10T22:31:13.290Z,9.90
2017-11-10T22:33:42.318Z,10.10
2017-11-10T22:36:10.441Z,11.20
2017-11-10T22:38:38.570Z,10.97
2017-11-10T22:41:06.725Z,10.67
2017-11-10T22:43:35.687Z,10.00
2017-11-10T22:46:03.812Z,8.53
2017-11-10T22:48:32.612Z,12.43
2017-11-10T22:51:00.744Z,10.83
2017-11-10T22:53:29.668Z,12.60
2017-11-10T22:55:57.818Z,12.07
2017-11-10T22:58:26.718Z,10.27
2017-11-10T23:00:54.877Z,14.80
2017-11-10T23:03:23.012Z,13.00
2017-11-10T23:05:51.141Z,13.47
2017-11-10T23:08:19.254Z,9.10
2017-11-10T23:10:47.506Z,10.80
2017-11-10T23:13:15.617Z,10.87
2017-11-10T23:15:44.516Z,12.10
2017-11-10T23:18:13.589Z,11.30
2017-11-10T23:20:41.714Z,20.83
2017-11-10T23:23:10.614Z,14.00
2017-11-10T23:25:38.736Z,10.33
2017-11-10T23:28:07.663Z,11.43
2017-11-10T23:30:35.807Z,15.67
2017-11-10T23:33:04.687Z,12.20
2017-11-10T23:35:33.596Z,11.30
2017-11-10T23:38:02.466Z,16.73
2017-11-10T23:40:31.396Z,14.43
2017-11-10T23:42:59.514Z,17.77
2017-11-10T23:45:27.658Z,14.77
2017-11-10T23:47:55.817Z,14.73
2017-11-10T23:50:23.965Z,12.00
2017-11-10T23:52:52.887Z,13.73
2017-11-10T23:55:21.006Z,13.63
2017-11-10T23:57:49.919Z,16.43
